Fort Worth Alliance Airport
KAFW : rendu visible

Aérodrome :











RETROUVEZ-NOUS SUR...

 
LOGIN :

S'inscrire | Disclaimer

   EN    FR    IT 

 









Légende :    VFR   VFR Marginal   IFR   IFR Intensif   IFR Très Intensif
Visi : 
Plafond : 
>= 8 km
>= 3000ft
5 à 8 km
1000 à 3000 ft
1500m à 5 km
500 à 1000 ft
800 à 1500m
200 à 500 ft
< 800m
< 200 ft
Symboles :   Orages  Brouillard  Fortes neiges  Fortes précipitations  Vent > 20 kt






- Altitude de l'aérodrome : 722 ft


KAFW - Fort Worth Alliance

DERNIER METAR :
  • 260453Z 16016G22KT 10SM BKN022 OVC035 15/11 A2997 RMK AO2 SLP145 T01500106

METARs EXPIRÉS :
  • 260430Z 17013KT 10SM BKN024 OVC035 16/11 A2997 RMK AO2 T01560106
  • 260353Z 17013KT 10SM FEW025 BKN043 OVC050 16/10 A2997 RMK AO2 SLP148 T01560100
  • 260253Z 16013KT 10SM SCT036 OVC045 16/09 A2997 RMK AO2 SLP149 T01560089 51007

TAF KAFW
Valide du 26 à 06h jusqu'au 27 à 06h UTC


260535Z 2606/2706 18010KT P6SM BKN020
FM260900 20009KT P6SM OVC018
FM261200 30009KT P6SM SCT008 OVC015
TEMPO 2613/2616 4SM -DZ BR BKN008
FM261800 34010KT P6SM SCT300
FM262300 33004KT P6SM FEW300



MET'MAP, la Météo Aéronautique d'un coup d'oeil ! - Copyright ORBIFLY Décembre 2007 - Disclaimer

ORBIFLY MET'MAP TEAM :

Programmation & Développement : Alexandra Zaïnal
Sur une idée originale de : Baudouin d'Aumeries
Assistance à la programmation : Marc-Olivier Méhu
Soutien technique & logistique : Manuel Goepfert

Contact : metmap@orbifly.com




SOURCES & CREDITS :

   NOAA       Earth
Advisory